LTBA/IST METAR and TAF weather

Enter ICAO airport designator
Station Type Date Time Source
LTBA METAR 2019/10/15 18:20 UTC NOAA

LTBA 151820Z 03009KT CAVOK 18/15 Q1018 NOSIG


Station Type Date Time Source
LTBA Decoded METAR 2019/10/15 18:20 UTC NOAA

Istanbul / Ataturk, Turkey (LTBA) 40-58N 028-49E 37M
Oct 15, 2019 - 02:20 PM EDT / 2019.10.15 1820 UTC
Wind: from the NNE (030 degrees) at 10 MPH (9 KT):0
Visibility: greater than 7 mile(s):0
Temperature: 64 F (18 C)
Dew Point: 59 F (15 C)
Relative Humidity: 82%
Pressure (altimeter): 30.06 in. Hg (1018 hPa)
ob: LTBA 151820Z 03009KT CAVOK 18/15 Q1018 NOSIG
cycle: 18

Station Type Date Time Source
LTBA TAF 2019/10/15 18:03 UTC NOAA

TAF LTBA 151640Z 1518/1624 03009KT 9999 SCT030
BECMG 1518/1521 BKN016 PROB40 1601/1604 4000 BR
BECMG 1606/1609 SCT035

Example: see airport list